Time;durP1;ratioP1;P1;durP2;ratioP2;P2;SDS_P1;SDS_P2;PMS_P1;PMS_P2;Temp;Humidity;BMP_temperature;BMP_pressure;BME280_temperature;BME280_humidity;BME280_pressure;Samples;Min_cycle;Max_cycle;Signal;HPM_P1;HPM_P2
2022/11/10 00:00:01;;;;;;;10.83;2.30;;;13.10;99.90;;;;;;4955928;29;20206;-74
2022/11/10 00:02:26;;;;;;;6.00;2.77;;;13.30;99.90;;;;;;4955681;28;20225;-75
2022/11/10 00:04:52;;;;;;;8.70;2.80;;;13.30;99.90;;;;;;4955861;29;20191;-76
2022/11/10 00:07:17;;;;;;;6.03;2.10;;;13.20;99.90;;;;;;4955670;29;20174;-76
2022/11/10 00:09:43;;;;;;;10.67;3.37;;;13.20;99.90;;;;;;4955684;29;20268;-76
2022/11/10 00:12:08;;;;;;;5.40;2.67;;;13.10;99.90;;;;;;4955749;29;20245;-76
2022/11/10 00:17:18;;;;;;;7.33;2.70;;;13.10;99.90;;;;;;4955698;29;20185;-76
2022/11/10 00:19:43;;;;;;;11.10;2.87;;;13.10;99.90;;;;;;4955457;29;20430;-76
2022/11/10 00:22:09;;;;;;;5.90;3.10;;;13.10;99.90;;;;;;4955583;29;20167;-76
2022/11/10 00:24:34;;;;;;;10.07;2.87;;;13.10;99.90;;;;;;4955567;29;20655;-76
2022/11/10 00:27:01;;;;;;;9.30;2.37;;;13.00;99.90;;;;;;4955408;29;20175;-76
2022/11/10 00:29:26;;;;;;;9.67;3.27;;;12.90;99.90;;;;;;4955394;29;20582;-75
2022/11/10 00:31:52;;;;;;;4.57;2.90;;;13.00;99.90;;;;;;4955131;28;20466;-75
2022/11/10 00:34:17;;;;;;;7.70;2.40;;;13.10;99.90;;;;;;4955327;29;20189;-75
2022/11/10 00:36:43;;;;;;;9.40;2.80;;;13.00;99.90;;;;;;4955155;29;20178;-75
2022/11/10 00:39:09;;;;;;;7.80;2.70;;;13.10;99.90;;;;;;4940710;29;20197;-75
2022/11/10 00:41:35;;;;;;;9.70;2.90;;;13.10;99.90;;;;;;4936036;29;20238;-75
2022/11/10 00:44:01;;;;;;;6.23;2.13;;;13.20;99.90;;;;;;4935927;29;20415;-75
2022/11/10 00:46:26;;;;;;;17.70;4.23;;;13.10;99.90;;;;;;4935786;29;20561;-75
2022/11/10 00:48:52;;;;;;;12.00;4.00;;;13.10;99.90;;;;;;4935790;29;20199;-75
2022/11/10 00:51:27;;;;;;;13.30;3.87;;;13.00;99.90;;;;;;4918674;29;20194;-75
2022/11/10 00:53:53;;;;;;;9.77;2.90;;;13.10;99.90;;;;;;4935946;29;20705;-75
2022/11/10 00:56:20;;;;;;;13.23;2.80;;;13.00;99.90;;;;;;4935662;29;21008;-75
2022/11/10 00:58:45;;;;;;;8.17;2.87;;;13.00;99.90;;;;;;4935950;29;20427;-76
2022/11/10 01:01:11;;;;;;;10.50;2.83;;;13.00;99.90;;;;;;4935584;29;20478;-76
2022/11/10 01:03:38;;;;;;;17.63;3.10;;;13.00;99.90;;;;;;4935571;29;20183;-76
2022/11/10 01:06:15;;;;;;;7.50;3.07;;;13.00;99.90;;;;;;4935469;29;20427;-80
2022/11/10 01:08:41;;;;;;;5.13;2.97;;;13.00;99.90;;;;;;4935595;29;21185;-79
2022/11/10 01:11:09;;;;;;;7.93;2.83;;;13.00;99.90;;;;;;4935321;29;20481;-79
2022/11/10 01:13:36;;;;;;;6.97;2.30;;;13.00;99.90;;;;;;4935344;29;20430;-76
2022/11/10 01:16:14;;;;;;;5.63;2.07;;;13.10;99.90;;;;;;4934860;29;20431;-76
2022/11/10 01:18:40;;;;;;;13.30;3.10;;;13.10;99.90;;;;;;4935295;29;20918;-76
2022/11/10 01:21:07;;;;;;;7.10;2.70;;;13.00;99.90;;;;;;4935175;29;20450;-77
2022/11/10 01:23:32;;;;;;;9.17;2.90;;;13.00;99.90;;;;;;4935345;29;20427;-77
2022/11/10 01:26:03;;;;;;;8.97;2.73;;;13.00;99.90;;;;;;4935190;29;20430;-75
2022/11/10 01:28:29;;;;;;;5.67;2.40;;;12.90;99.90;;;;;;4935139;29;20183;-78
2022/11/10 01:30:59;;;;;;;6.53;2.27;;;12.90;99.90;;;;;;4934968;29;20481;-78
2022/11/10 05:32:13;;;;;;;5.70;2.70;;;12.30;99.90;;;;;;5162552;23;20496;-77
2022/11/10 05:34:38;;;;;;;11.17;3.30;;;12.30;99.90;;;;;;4973913;28;20429;-78
2022/11/10 05:37:04;;;;;;;13.07;3.03;;;12.30;99.90;;;;;;4973836;28;20272;-73
2022/11/10 05:39:29;;;;;;;11.60;3.67;;;12.20;99.90;;;;;;4973947;28;20316;-74
2022/11/10 05:41:55;;;;;;;12.17;3.83;;;12.20;99.90;;;;;;4973532;28;20251;-75
2022/11/10 05:44:20;;;;;;;15.30;4.33;;;12.20;99.90;;;;;;4972216;28;20193;-74
2022/11/10 05:46:47;;;;;;;8.30;3.30;;;12.20;99.90;;;;;;4944724;28;20945;-75
2022/11/10 05:49:12;;;;;;;16.43;5.47;;;12.20;99.90;;;;;;4951014;28;20320;-76
2022/11/10 05:51:38;;;;;;;13.20;4.07;;;12.30;99.90;;;;;;4958947;28;20467;-77
2022/11/10 05:54:04;;;;;;;10.93;3.43;;;12.30;99.90;;;;;;4962414;28;20656;-77
2022/11/10 05:56:29;;;;;;;8.97;3.73;;;12.30;99.90;;;;;;4965020;28;20505;-75
2022/11/10 05:58:55;;;;;;;16.17;4.63;;;12.40;99.90;;;;;;4963320;28;20444;-73
2022/11/10 06:01:21;;;;;;;14.70;3.57;;;12.30;99.90;;;;;;4956577;28;21503;-74
2022/11/10 06:03:46;;;;;;;10.27;2.93;;;12.20;99.90;;;;;;4973420;28;20534;-74
2022/11/10 06:06:12;;;;;;;10.60;3.40;;;12.30;99.90;;;;;;4971045;28;20537;-74
2022/11/10 06:08:37;;;;;;;6.73;3.67;;;12.30;99.90;;;;;;4961572;28;20182;-74
2022/11/10 06:11:03;;;;;;;14.67;3.37;;;12.30;99.90;;;;;;4964209;28;20192;-74
2022/11/10 06:13:28;;;;;;;17.50;4.10;;;12.20;99.90;;;;;;4964792;28;20174;-73
2022/11/10 06:15:54;;;;;;;16.90;4.47;;;12.30;99.90;;;;;;4972986;28;20241;-73
2022/11/10 06:18:20;;;;;;;18.03;4.03;;;12.20;99.90;;;;;;4973202;28;20533;-73
2022/11/10 06:20:46;;;;;;;16.00;4.40;;;12.20;99.90;;;;;;4972890;28;20185;-74
2022/11/10 06:23:13;;;;;;;21.17;4.50;;;12.10;99.90;;;;;;4973049;28;20577;-74
2022/11/10 06:25:40;;;;;;;12.50;4.10;;;12.10;99.90;;;;;;4973335;28;20900;-74
2022/11/10 06:28:07;;;;;;;6.10;3.50;;;12.10;99.90;;;;;;4973119;28;20429;-73
2022/11/10 06:30:34;;;;;;;15.33;4.47;;;12.20;99.90;;;;;;4973005;28;20480;-73
2022/11/10 06:33:01;;;;;;;9.60;5.07;;;12.10;99.90;;;;;;4972183;28;20598;-74
2022/11/10 06:35:27;;;;;;;10.70;4.10;;;12.10;99.90;;;;;;4962349;28;20477;-74
2022/11/10 06:38:08;;;;;;;12.13;3.20;;;12.10;99.90;;;;;;4955460;28;20997;-73
2022/11/10 06:40:34;;;;;;;14.57;3.77;;;12.10;99.90;;;;;;4970175;28;20526;-73
2022/11/10 06:43:00;;;;;;;6.97;3.50;;;12.10;99.90;;;;;;4972340;28;20525;-73
2022/11/10 06:45:29;;;;;;;9.13;3.00;;;12.10;99.90;;;;;;4973622;28;20178;-73
2022/11/10 06:48:01;;;;;;;11.60;4.30;;;12.10;99.90;;;;;;4973587;28;20422;-74
2022/11/10 06:50:27;;;;;;;13.07;4.83;;;12.10;99.90;;;;;;4955084;28;20481;-73
2022/11/10 06:52:57;;;;;;;11.10;3.30;;;12.20;99.90;;;;;;4954613;29;20422;-74
2022/11/10 06:55:23;;;;;;;12.37;4.60;;;12.10;99.90;;;;;;4954624;29;20186;-72
2022/11/10 06:57:48;;;;;;;13.13;4.33;;;12.20;99.90;;;;;;4954491;29;20434;-72
2022/11/10 07:00:15;;;;;;;16.50;3.20;;;12.10;99.90;;;;;;4959525;28;20433;-77
2022/11/10 07:02:40;;;;;;;9.43;3.23;;;12.10;99.90;;;;;;4962261;28;20200;-79
2022/11/10 07:05:06;;;;;;;8.83;2.93;;;12.10;99.90;;;;;;4963601;28;20445;-80
2022/11/10 07:07:32;;;;;;;9.23;3.73;;;12.00;99.90;;;;;;4961232;28;20178;-80
2022/11/10 07:09:57;;;;;;;10.33;3.53;;;11.90;99.90;;;;;;4963173;28;20677;-79
2022/11/10 07:12:23;;;;;;;11.30;3.50;;;11.90;99.90;;;;;;4962158;28;20232;-79
2022/11/10 07:14:48;;;;;;;19.63;3.83;;;11.90;99.90;;;;;;4965791;28;20285;-76
2022/11/10 07:17:14;;;;;;;9.47;4.30;;;12.00;99.90;;;;;;4965271;28;20179;-78
2022/11/10 07:19:39;;;;;;;16.20;3.53;;;12.00;99.90;;;;;;4949475;28;20177;-76
2022/11/10 07:22:06;;;;;;;14.03;3.67;;;12.10;99.90;;;;;;4963945;28;20209;-74
2022/11/10 07:24:31;;;;;;;9.23;3.63;;;12.30;99.90;;;;;;4966797;28;20178;-76
2022/11/10 07:26:57;;;;;;;15.50;3.17;;;12.30;99.90;;;;;;4966569;28;20925;-77
2022/11/10 07:29:23;;;;;;;14.20;3.40;;;12.30;99.90;;;;;;4964854;28;20248;-74
2022/11/10 07:31:49;;;;;;;10.53;3.03;;;12.30;99.90;;;;;;4966643;28;20607;-74
2022/11/10 07:34:14;;;;;;;12.10;3.50;;;12.30;99.90;;;;;;4965728;28;20481;-78
2022/11/10 07:36:40;;;;;;;11.50;3.47;;;12.40;99.90;;;;;;4965547;28;20215;-78
2022/11/10 07:39:05;;;;;;;11.90;3.93;;;12.40;99.90;;;;;;4966002;28;20624;-79
2022/11/10 07:41:31;;;;;;;5.07;2.97;;;12.40;99.90;;;;;;4965433;28;20241;-78
2022/11/10 07:43:57;;;;;;;5.87;3.37;;;12.50;99.90;;;;;;4965418;28;20182;-78
2022/11/10 07:46:22;;;;;;;10.77;4.07;;;12.50;99.90;;;;;;4966832;28;20174;-77
2022/11/10 07:48:48;;;;;;;10.23;3.07;;;12.60;99.90;;;;;;4964835;28;20209;-77
2022/11/10 07:51:13;;;;;;;13.20;3.90;;;12.60;99.90;;;;;;4963979;28;20242;-74
2022/11/10 07:53:40;;;;;;;9.67;2.90;;;12.60;99.90;;;;;;4966192;28;20257;-75
2022/11/10 07:56:06;;;;;;;12.47;3.90;;;12.60;99.90;;;;;;4961358;28;20266;-75
2022/11/10 07:58:32;;;;;;;7.17;3.30;;;12.60;99.90;;;;;;4956316;29;20981;-75
2022/11/10 08:00:58;;;;;;;7.60;2.90;;;12.60;99.90;;;;;;4956275;29;20225;-75
2022/11/10 08:03:24;;;;;;;12.57;3.97;;;12.60;99.90;;;;;;4956084;29;20446;-75
2022/11/10 08:05:50;;;;;;;11.97;3.20;;;12.60;99.90;;;;;;4956062;29;20205;-74
2022/11/10 08:08:16;;;;;;;12.20;5.00;;;12.70;99.90;;;;;;4956212;29;20175;-74
2022/11/10 08:10:42;;;;;;;14.63;3.83;;;12.70;99.90;;;;;;4955929;29;20846;-75
2022/11/10 08:13:10;;;;;;;7.70;3.77;;;12.70;99.90;;;;;;4955999;29;20174;-75
2022/11/10 08:15:36;;;;;;;12.97;3.03;;;12.80;99.90;;;;;;4955612;28;20438;-75
2022/11/10 08:18:05;;;;;;;7.50;3.30;;;12.90;99.90;;;;;;4956350;28;20438;-74
2022/11/10 08:20:31;;;;;;;10.67;3.80;;;13.00;99.90;;;;;;4964091;28;20437;-75
2022/11/10 08:23:03;;;;;;;13.23;3.40;;;13.10;99.90;;;;;;4964840;28;20444;-73
2022/11/10 08:25:30;;;;;;;11.20;3.60;;;13.20;99.90;;;;;;4963958;28;20202;-75
2022/11/10 08:28:00;;;;;;;14.77;5.67;;;13.20;99.90;;;;;;4965665;28;20429;-76
2022/11/10 08:30:26;;;;;;;7.87;3.10;;;13.30;99.90;;;;;;4964917;28;20535;-75
2022/11/10 08:32:54;;;;;;;8.43;3.20;;;13.40;99.90;;;;;;4958625;28;20937;-73
2022/11/10 08:35:20;;;;;;;10.37;2.60;;;13.50;99.90;;;;;;4962182;28;20466;-73
2022/11/10 08:37:45;;;;;;;7.80;3.87;;;13.50;99.90;;;;;;4961778;28;20525;-73
2022/11/10 08:40:11;;;;;;;10.10;2.83;;;13.50;99.90;;;;;;4955368;29;20181;-73
2022/11/10 08:42:36;;;;;;;9.67;2.80;;;13.70;99.90;;;;;;4955215;29;20206;-73
2022/11/10 08:45:02;;;;;;;12.10;3.43;;;13.80;99.90;;;;;;4954080;29;20269;-73
2022/11/10 08:47:28;;;;;;;15.10;4.13;;;13.90;99.90;;;;;;4955265;29;20532;-73
2022/11/10 08:49:53;;;;;;;15.03;3.23;;;14.00;99.90;;;;;;4968127;28;20238;-73
2022/11/10 08:52:19;;;;;;;12.10;2.40;;;14.00;99.90;;;;;;4957211;28;20181;-74
2022/11/10 08:54:44;;;;;;;19.07;4.97;;;14.10;99.90;;;;;;4974292;28;20221;-73
2022/11/10 08:57:10;;;;;;;11.57;4.90;;;14.20;99.90;;;;;;4974329;28;20261;-74
2022/11/10 08:59:35;;;;;;;8.37;3.27;;;14.30;99.90;;;;;;4974281;28;20543;-74
2022/11/10 09:02:01;;;;;;;14.57;4.47;;;14.40;99.90;;;;;;4974162;28;20178;-74
2022/11/10 09:04:26;;;;;;;14.43;4.03;;;14.40;99.90;;;;;;4974240;28;20185;-74
2022/11/10 09:06:52;;;;;;;14.30;4.07;;;14.60;99.90;;;;;;4974278;28;20174;-74
2022/11/10 09:09:17;;;;;;;14.30;5.10;;;14.50;99.90;;;;;;4973623;28;20616;-76
2022/11/10 09:11:43;;;;;;;14.93;3.90;;;14.50;99.90;;;;;;4974072;28;20706;-76
2022/11/10 09:14:09;;;;;;;9.93;3.40;;;14.50;99.90;;;;;;4974039;28;20193;-76
2022/11/10 09:16:34;;;;;;;9.50;3.47;;;14.50;99.90;;;;;;4974176;28;20229;-76
2022/11/10 09:19:00;;;;;;;13.60;4.73;;;14.40;99.90;;;;;;4973425;28;20433;-75
2022/11/10 09:21:25;;;;;;;14.03;3.80;;;14.40;99.90;;;;;;4974029;28;20181;-75
2022/11/10 09:23:51;;;;;;;13.50;3.07;;;14.50;99.90;;;;;;4974078;28;20174;-76
2022/11/10 09:26:16;;;;;;;6.30;2.93;;;14.60;99.90;;;;;;4973769;28;20190;-74
2022/11/10 09:28:42;;;;;;;10.33;3.33;;;14.60;99.90;;;;;;4973613;28;20293;-74
2022/11/10 09:31:08;;;;;;;14.47;3.63;;;14.50;99.90;;;;;;4966879;28;20230;-75
2022/11/10 09:33:33;;;;;;;7.27;3.43;;;14.40;99.90;;;;;;4962816;28;20180;-73
2022/11/10 09:35:59;;;;;;;9.47;4.53;;;14.40;99.90;;;;;;4962450;28;20212;-73
2022/11/10 09:38:24;;;;;;;7.53;2.80;;;14.50;99.90;;;;;;4964539;28;20229;-74
2022/11/10 09:41:04;;;;;;;12.87;3.57;;;14.60;99.90;;;;;;4962741;28;20182;-75
2022/11/10 09:43:51;;;;;;;14.17;3.27;;;14.60;99.90;;;;;;4960292;28;20189;-73
2022/11/10 09:46:26;;;;;;;10.23;2.87;;;14.60;99.90;;;;;;4962002;28;20532;-74
2022/11/10 09:49:00;;;;;;;8.37;3.50;;;14.70;99.90;;;;;;4964274;28;20460;-75
2022/11/10 09:51:35;;;;;;;9.97;4.00;;;14.70;99.90;;;;;;4963459;28;20440;-73
2022/11/10 09:54:11;;;;;;;9.23;3.30;;;14.70;99.90;;;;;;4966189;28;20447;-73
2022/11/10 09:56:37;;;;;;;12.23;2.97;;;14.80;99.90;;;;;;4960956;28;20430;-73
2022/11/10 09:59:15;;;;;;;7.93;2.43;;;14.90;99.90;;;;;;4959330;28;20436;-73
2022/11/10 10:02:34;;;;;;;19.83;3.93;;;14.80;99.90;;;;;;4965537;28;20213;-74
2022/11/10 10:05:26;;;;;;;20.07;3.73;;;14.80;99.90;;;;;;4873981;29;20843;-74
2022/11/10 10:08:33;;;;;;;7.77;2.77;;;14.80;99.90;;;;;;4961550;28;20432;-74
2022/11/10 10:11:20;;;;;;;6.53;2.73;;;14.90;99.90;;;;;;4962744;28;20528;-73
2022/11/10 10:13:54;;;;;;;12.30;3.97;;;14.90;99.90;;;;;;4963463;28;20785;-74
2022/11/10 10:16:45;;;;;;;6.40;2.60;;;14.80;99.90;;;;;;4962504;28;20454;-73
2022/11/10 10:19:57;;;;;;;7.03;2.63;;;14.90;99.90;;;;;;4951144;28;20449;-74
2022/11/10 10:22:35;;;;;;;15.53;2.53;;;15.10;99.90;;;;;;4919951;28;20442;-74
2022/11/10 10:25:08;;;;;;;11.80;3.77;;;15.20;99.90;;;;;;4962184;28;20430;-75
2022/11/10 10:27:37;;;;;;;13.90;3.30;;;15.20;99.90;;;;;;4962431;28;20907;-75
2022/11/10 10:30:12;;;;;;;12.37;2.70;;;15.20;99.90;;;;;;4962181;28;21004;-75
2022/11/10 10:32:38;;;;;;;19.83;3.60;;;15.20;99.90;;;;;;4963380;28;20476;-75
2022/11/10 10:35:04;;;;;;;14.83;3.47;;;15.30;99.90;;;;;;4961372;28;20514;-77
2022/11/10 10:37:51;;;;;;;10.10;3.37;;;15.40;99.90;;;;;;4963967;28;20177;-76
2022/11/10 10:40:20;;;;;;;14.83;2.73;;;15.40;99.90;;;;;;4953580;29;20439;-77
2022/11/10 10:42:46;;;;;;;13.17;3.17;;;15.50;99.90;;;;;;4952702;29;20431;-77
2022/11/10 10:45:20;;;;;;;15.20;3.23;;;15.50;99.90;;;;;;4953681;29;20434;-76
2022/11/10 10:47:48;;;;;;;9.23;2.27;;;15.60;99.90;;;;;;4953900;28;20421;-75
2022/11/10 10:50:26;;;;;;;8.53;2.70;;;15.70;99.90;;;;;;4963751;28;20819;-77
2022/11/10 10:53:15;;;;;;;11.90;3.37;;;15.70;99.90;;;;;;4966202;28;20425;-77
2022/11/10 10:56:04;;;;;;;7.43;3.03;;;15.70;99.90;;;;;;4965023;28;20425;-76
2022/11/10 10:58:35;;;;;;;19.43;3.90;;;15.80;99.90;;;;;;4967044;28;20517;-76
2022/11/10 11:01:13;;;;;;;11.07;3.03;;;15.90;99.90;;;;;;4950269;28;20456;-76
2022/11/10 11:03:44;;;;;;;7.70;3.07;;;16.00;99.90;;;;;;4967485;28;20428;-76
2022/11/10 11:06:13;;;;;;;7.73;2.43;;;16.10;99.90;;;;;;4966550;28;20819;-77
2022/11/10 11:08:38;;;;;;;7.50;2.37;;;16.10;99.90;;;;;;4965525;28;20482;-77
2022/11/10 11:11:09;;;;;;;6.50;2.70;;;16.30;99.90;;;;;;4970212;28;20477;-76
2022/11/10 11:13:35;;;;;;;5.70;2.77;;;16.30;99.90;;;;;;4965602;28;20220;-79
2022/11/10 11:16:03;;;;;;;15.93;2.37;;;16.30;99.90;;;;;;4965603;28;20480;-77
2022/11/10 11:18:31;;;;;;;6.90;3.10;;;16.40;99.90;;;;;;4949227;28;20527;-76
2022/11/10 11:21:11;;;;;;;13.87;3.33;;;16.40;99.90;;;;;;4966554;28;20437;-75
2022/11/10 11:23:46;;;;;;;8.27;2.40;;;16.40;99.90;;;;;;4966049;28;20851;-76
2022/11/10 11:26:31;;;;;;;6.10;3.13;;;16.60;99.90;;;;;;4964293;28;20456;-77
2022/11/10 11:29:09;;;;;;;9.10;2.50;;;16.70;99.90;;;;;;4965289;28;20458;-77
2022/11/10 11:31:51;;;;;;;11.83;3.00;;;16.80;99.90;;;;;;4965625;28;20475;-76
2022/11/10 11:34:46;;;;;;;6.97;2.33;;;16.90;99.90;;;;;;4966488;28;20448;-76
2022/11/10 11:37:21;;;;;;;5.87;2.03;;;17.10;99.90;;;;;;4964046;28;20436;-76
2022/11/10 11:40:11;;;;;;;9.40;2.63;;;17.20;99.90;;;;;;4959707;28;20500;-75
2022/11/10 11:42:59;;;;;;;12.87;3.17;;;17.40;99.90;;;;;;4942542;28;20536;-75
2022/11/10 11:45:56;;;;;;;10.77;3.70;;;17.50;99.90;;;;;;4964019;28;20517;-76
2022/11/10 11:48:50;;;;;;;11.00;2.67;;;17.70;99.90;;;;;;4903729;29;20464;-76
2022/11/10 11:51:53;;;;;;;8.13;2.50;;;17.70;99.90;;;;;;4953250;28;20464;-76
2022/11/10 11:54:49;;;;;;;9.10;3.27;;;17.60;99.90;;;;;;4964364;28;20822;-77
2022/11/10 11:57:17;;;;;;;8.53;3.27;;;17.60;99.90;;;;;;4966298;28;20983;-72
2022/11/10 12:00:00;;;;;;;11.90;4.37;;;17.50;99.90;;;;;;4967574;28;20512;-73
2022/11/10 12:03:01;;;;;;;12.47;3.33;;;17.40;99.90;;;;;;4965020;28;20829;-74
2022/11/10 12:05:45;;;;;;;9.00;2.90;;;17.30;99.90;;;;;;4956060;29;20426;-69
2022/11/10 12:08:35;;;;;;;9.53;2.20;;;17.10;99.90;;;;;;4958496;28;20479;-77
2022/11/10 12:11:30;;;;;;;8.07;2.50;;;17.00;99.90;;;;;;4970714;28;20479;-77
2022/11/10 12:14:07;;;;;;;6.10;2.50;;;16.90;99.90;;;;;;4975291;28;20504;-76
2022/11/10 12:16:34;;;;;;;13.30;3.30;;;16.70;99.90;;;;;;4975288;28;20516;-76
2022/11/10 12:19:08;;;;;;;5.70;2.80;;;16.60;99.90;;;;;;4974904;28;20421;-78
2022/11/10 12:21:50;;;;;;;7.77;2.50;;;16.60;99.90;;;;;;4975274;28;20487;-75
2022/11/10 12:24:44;;;;;;;11.00;3.00;;;16.70;99.90;;;;;;4975021;28;20429;-77
2022/11/10 12:27:33;;;;;;;9.53;2.23;;;16.70;99.90;;;;;;4974920;28;20449;-77
2022/11/10 12:30:03;;;;;;;13.20;2.70;;;16.70;99.90;;;;;;4974736;28;20591;-76
2022/11/10 12:32:57;;;;;;;7.63;2.57;;;16.60;99.90;;;;;;4974788;28;20826;-77
2022/11/10 12:35:32;;;;;;;12.13;2.90;;;16.50;99.90;;;;;;4947381;29;20927;-76
2022/11/10 12:38:05;;;;;;;11.33;2.40;;;16.40;99.90;;;;;;4955402;29;20433;-77
2022/11/10 12:40:37;;;;;;;11.70;2.03;;;16.40;99.90;;;;;;4970239;28;20480;-78
2022/11/10 12:43:31;;;;;;;13.30;3.20;;;16.40;99.90;;;;;;4974198;28;20912;-76
2022/11/10 12:45:59;;;;;;;7.43;2.90;;;16.50;99.90;;;;;;4957483;28;20520;-77
2022/11/10 12:48:33;;;;;;;15.10;2.70;;;16.40;99.90;;;;;;4940441;28;20433;-77
2022/11/10 12:51:02;;;;;;;5.53;2.63;;;16.30;99.90;;;;;;4970862;28;20860;-80
2022/11/10 12:53:35;;;;;;;18.50;3.00;;;16.40;99.90;;;;;;4955190;29;20945;-78
2022/11/10 12:56:07;;;;;;;5.67;2.20;;;16.40;99.90;;;;;;4955674;28;20440;-84
2022/11/10 12:58:32;;;;;;;39.30;3.70;;;16.50;99.90;;;;;;4965920;28;20433;-83
2022/11/10 13:01:01;;;;;;;5.90;2.33;;;16.30;99.90;;;;;;4963601;28;20466;-79
2022/11/10 13:03:36;;;;;;;5.37;1.90;;;16.10;99.90;;;;;;4963989;28;20193;-80
2022/11/10 13:06:04;;;;;;;8.77;2.60;;;16.20;99.90;;;;;;4963600;28;20493;-81
2022/11/10 13:08:32;;;;;;;6.43;2.00;;;16.30;99.90;;;;;;4962837;28;20464;-88
2022/11/10 13:11:05;;;;;;;8.03;2.60;;;16.40;99.90;;;;;;4948088;28;20470;-83
2022/11/10 13:13:50;;;;;;;5.83;2.13;;;16.50;99.90;;;;;;4961227;28;20424;-82
2022/11/10 13:16:41;;;;;;;6.87;3.07;;;16.60;99.90;;;;;;4965107;28;20433;-82
2022/11/10 13:19:33;;;;;;;5.67;1.80;;;16.60;99.90;;;;;;4936501;28;20434;-82
2022/11/10 13:22:05;;;;;;;7.90;2.30;;;16.60;99.90;;;;;;4963168;28;20434;-80
2022/11/10 13:24:36;;;;;;;14.67;2.80;;;16.60;99.90;;;;;;4962879;28;20452;-79
2022/11/10 13:27:27;;;;;;;10.80;1.97;;;16.70;99.90;;;;;;4963564;28;20489;-79
2022/11/10 13:29:56;;;;;;;11.40;2.13;;;16.60;99.90;;;;;;4953336;28;21025;-82
2022/11/10 13:32:32;;;;;;;9.17;2.07;;;16.60;99.90;;;;;;4963775;28;20465;-76
2022/11/10 13:35:28;;;;;;;14.50;3.03;;;16.70;99.90;;;;;;4964102;28;20520;-78
2022/11/10 13:37:55;;;;;;;7.07;2.00;;;16.70;99.90;;;;;;4964525;28;20875;-77
2022/11/10 13:40:24;;;;;;;6.70;2.47;;;16.70;99.90;;;;;;4963216;28;20452;-77
2022/11/10 13:42:55;;;;;;;5.30;1.80;;;16.70;99.90;;;;;;4964817;28;20469;-81
2022/11/10 13:45:31;;;;;;;10.93;2.20;;;16.50;99.90;;;;;;4969476;28;20484;-78
2022/11/10 13:48:17;;;;;;;7.60;1.87;;;16.50;99.90;;;;;;4972291;28;20468;-78
2022/11/10 13:50:58;;;;;;;5.50;1.67;;;16.50;99.90;;;;;;4973470;28;20481;-78
2022/11/10 13:53:49;;;;;;;7.03;1.43;;;16.40;99.90;;;;;;4973515;28;20500;-78
2022/11/10 13:56:56;;;;;;;3.87;1.70;;;16.40;99.90;;;;;;4930153;28;20476;-78
2022/11/10 13:59:27;;;;;;;8.30;2.40;;;16.50;99.90;;;;;;4971405;28;20524;-79
2022/11/10 14:02:30;;;;;;;4.30;1.90;;;16.50;99.90;;;;;;4973237;28;20421;-79
2022/11/10 14:04:56;;;;;;;7.30;2.10;;;16.40;99.90;;;;;;4973292;28;20440;-79
2022/11/10 14:07:22;;;;;;;8.73;2.07;;;16.40;99.90;;;;;;4968861;28;20911;-81
2022/11/10 14:09:51;;;;;;;6.63;2.10;;;16.30;99.90;;;;;;4961097;28;20603;-79
2022/11/10 14:12:44;;;;;;;3.40;1.60;;;16.20;99.90;;;;;;4960442;28;21028;-80
2022/11/10 14:15:23;;;;;;;3.30;1.63;;;16.30;99.90;;;;;;4961753;28;20433;-76
2022/11/10 14:17:51;;;;;;;2.50;1.53;;;16.20;99.90;;;;;;4963512;28;20437;-78
2022/11/10 14:20:39;;;;;;;9.77;1.93;;;16.20;99.90;;;;;;4962146;28;20438;-77
2022/11/10 14:23:06;;;;;;;11.00;1.80;;;16.20;99.90;;;;;;4966155;28;20430;-78
2022/11/10 14:25:38;;;;;;;4.93;1.57;;;16.20;99.90;;;;;;4948747;28;20430;-80
2022/11/10 14:28:23;;;;;;;9.67;2.10;;;16.20;99.90;;;;;;4967087;28;20933;-78
2022/11/10 14:30:53;;;;;;;4.07;1.57;;;16.20;99.90;;;;;;4958760;28;20539;-79
2022/11/10 14:33:20;;;;;;;6.30;1.77;;;16.10;99.90;;;;;;4963719;28;20433;-77
2022/11/10 14:35:46;;;;;;;2.83;1.43;;;16.10;99.90;;;;;;4966108;28;20533;-79
2022/11/10 14:38:23;;;;;;;7.67;2.63;;;16.10;99.90;;;;;;4966891;28;20853;-79
2022/11/10 14:40:52;;;;;;;10.63;1.97;;;16.10;99.90;;;;;;4967777;28;20205;-77
2022/11/10 14:44:04;;;;;;;12.97;2.33;;;16.10;99.90;;;;;;4967120;28;20469;-76
2022/11/10 14:46:29;;;;;;;4.50;1.90;;;16.10;99.90;;;;;;4957773;28;20435;-76
2022/11/10 14:49:00;;;;;;;5.63;1.53;;;16.10;99.90;;;;;;4965351;28;20509;-77
2022/11/10 14:51:28;;;;;;;4.43;1.60;;;16.10;99.90;;;;;;4965735;28;20189;-78
2022/11/10 14:53:55;;;;;;;4.20;2.60;;;16.10;99.90;;;;;;4967466;28;20531;-78
2022/11/10 14:56:35;;;;;;;9.30;2.30;;;16.00;99.90;;;;;;4966141;28;20464;-77
2022/11/10 14:59:04;;;;;;;10.00;2.30;;;16.10;99.90;;;;;;4973914;28;20436;-79
2022/11/10 15:01:33;;;;;;;5.47;1.43;;;16.10;99.90;;;;;;4965022;28;20430;-75
2022/11/10 15:04:01;;;;;;;7.33;1.83;;;16.00;99.90;;;;;;4964976;28;20937;-78
2022/11/10 15:06:28;;;;;;;8.30;1.90;;;15.90;99.90;;;;;;4967025;28;20520;-76
2022/11/10 15:08:54;;;;;;;5.23;1.53;;;15.80;99.90;;;;;;4962539;28;20426;-74
2022/11/10 15:12:10;;;;;;;4.50;1.80;;;15.80;99.90;;;;;;4964998;28;20785;-76
2022/11/10 15:14:38;;;;;;;8.73;2.53;;;15.80;99.90;;;;;;4932019;28;20669;-72
2022/11/10 15:17:07;;;;;;;12.53;2.33;;;15.70;99.90;;;;;;4966827;28;20442;-74
2022/11/10 15:19:36;;;;;;;3.40;1.83;;;15.70;99.90;;;;;;4965264;28;20430;-78
2022/11/10 15:22:35;;;;;;;6.57;2.30;;;15.70;99.90;;;;;;4948354;28;20868;-76
2022/11/10 15:25:09;;;;;;;7.37;2.37;;;15.60;99.90;;;;;;4966211;28;20933;-76
2022/11/10 15:27:36;;;;;;;5.90;2.40;;;15.70;99.90;;;;;;4965076;28;20434;-77
2022/11/10 15:30:18;;;;;;;6.00;3.03;;;15.70;99.90;;;;;;4964994;28;20901;-73
2022/11/10 15:32:48;;;;;;;2.80;1.67;;;15.60;99.90;;;;;;4960430;28;20440;-75
2022/11/10 15:35:22;;;;;;;5.53;2.10;;;15.60;99.90;;;;;;4963991;28;20473;-76
2022/11/10 15:38:05;;;;;;;4.53;2.40;;;15.60;99.90;;;;;;4963595;28;20429;-77
2022/11/10 15:40:41;;;;;;;3.50;2.17;;;15.60;99.90;;;;;;4964615;28;20493;-75
2022/11/10 15:43:26;;;;;;;6.60;2.00;;;15.50;99.90;;;;;;4964480;28;20541;-75
2022/11/10 15:45:55;;;;;;;8.23;2.50;;;15.40;99.90;;;;;;4963497;28;20420;-75
2022/11/10 15:48:22;;;;;;;10.63;2.00;;;15.40;99.90;;;;;;4965658;28;20589;-75
2022/11/10 15:50:51;;;;;;;9.50;2.53;;;15.40;99.90;;;;;;4966450;28;21008;-75
2022/11/10 15:53:24;;;;;;;4.93;1.90;;;15.40;99.90;;;;;;4956134;29;20918;-76
2022/11/10 15:55:50;;;;;;;6.80;2.23;;;15.40;99.90;;;;;;4958736;28;20449;-75
2022/11/10 15:58:21;;;;;;;7.27;2.80;;;15.40;99.90;;;;;;4962768;28;20430;-75
2022/11/10 16:00:46;;;;;;;6.70;2.40;;;15.30;99.90;;;;;;4960385;28;20272;-75
2022/11/10 16:03:15;;;;;;;7.63;2.73;;;15.30;99.90;;;;;;4964852;28;20524;-76
2022/11/10 16:05:40;;;;;;;3.93;2.33;;;15.30;99.90;;;;;;4963772;28;20596;-76
2022/11/10 16:08:12;;;;;;;7.37;2.50;;;15.30;99.90;;;;;;4963210;28;20441;-76
2022/11/10 16:10:38;;;;;;;13.10;2.70;;;15.30;99.90;;;;;;4963949;28;20398;-76
2022/11/10 16:13:04;;;;;;;7.77;2.67;;;15.20;99.90;;;;;;4964553;28;20505;-78
2022/11/10 16:15:30;;;;;;;7.87;2.03;;;15.10;99.90;;;;;;4966548;28;20544;-77
2022/11/10 16:17:55;;;;;;;6.73;2.27;;;15.10;99.90;;;;;;4964784;28;20748;-78
2022/11/10 16:20:21;;;;;;;9.97;3.03;;;15.10;99.90;;;;;;4964944;28;20253;-77
2022/11/10 16:22:46;;;;;;;3.40;2.00;;;15.00;99.90;;;;;;4964557;28;20665;-79
2022/11/10 16:25:12;;;;;;;6.40;2.73;;;15.00;99.90;;;;;;4964987;28;20221;-77
2022/11/10 16:27:39;;;;;;;6.07;2.07;;;15.00;99.90;;;;;;4964649;28;20194;-77
2022/11/10 16:30:12;;;;;;;5.50;2.10;;;15.00;99.90;;;;;;4961914;28;20639;-77
2022/11/10 16:32:38;;;;;;;4.67;2.57;;;14.90;99.90;;;;;;4963900;28;20469;-77
2022/11/10 16:35:03;;;;;;;4.53;2.40;;;14.80;99.90;;;;;;4962457;28;20825;-79
2022/11/10 16:37:29;;;;;;;4.00;2.47;;;14.80;99.90;;;;;;4964750;28;20174;-78
2022/11/10 16:39:55;;;;;;;4.90;2.00;;;14.80;99.90;;;;;;4961212;28;20206;-75
2022/11/10 16:42:20;;;;;;;6.90;2.33;;;14.80;99.90;;;;;;4955647;29;20213;-75
2022/11/10 16:44:46;;;;;;;7.83;2.20;;;14.70;99.90;;;;;;4959050;28;20177;-75
2022/11/10 16:47:17;;;;;;;7.80;3.10;;;14.70;99.90;;;;;;4945364;28;20185;-75
2022/11/10 16:49:44;;;;;;;3.17;2.20;;;14.60;99.90;;;;;;4973384;28;20208;-75
2022/11/10 16:52:20;;;;;;;11.90;3.33;;;14.60;99.90;;;;;;4973966;28;20421;-74
2022/11/10 16:54:45;;;;;;;8.00;2.73;;;14.50;99.90;;;;;;4973400;28;20532;-76
2022/11/10 16:57:12;;;;;;;3.17;2.03;;;14.50;99.90;;;;;;4972604;28;20555;-75
2022/11/10 16:59:38;;;;;;;5.00;2.30;;;14.40;99.90;;;;;;4973692;28;20174;-75
2022/11/10 17:02:10;;;;;;;5.90;2.27;;;14.40;99.90;;;;;;4953190;28;20548;-75
2022/11/10 17:04:36;;;;;;;6.30;2.67;;;14.30;99.90;;;;;;4953501;29;20186;-74
2022/11/10 17:07:02;;;;;;;6.60;3.17;;;14.20;99.90;;;;;;4955075;29;20771;-74